TimeCDT,TemperatureF,Dew PointF,Humidity,Sea Level PressureIn,VisibilityMPH,Wind Direction,Wind SpeedMPH,Gust SpeedMPH,PrecipitationIn,Events,Conditions,WindDirDegrees,DateUTC
12:15 AM,48.2,42.8,82,30.06,4.0,NW,19.6,29.9,0.00,Rain,Light Rain,320,2012-10-10 05:15:00
12:31 AM,46.4,42.8,87,30.06,7.0,NW,13.8,-,0.00,Rain,Light Rain,320,2012-10-10 05:31:00
12:51 AM,46.9,42.1,83,30.06,9.0,NW,12.7,19.6,0.00,Rain,Light Rain,320,2012-10-10 05:51:00
1:51 AM,48.0,42.1,80,30.08,10.0,NW,5.8,-,0.02,,Mostly Cloudy,320,2012-10-10 06:51:00
2:51 AM,46.0,41.0,83,30.10,10.0,WNW,5.8,-,N/A,,Scattered Clouds,290,2012-10-10 07:51:00
3:51 AM,46.0,41.0,83,30.11,10.0,WNW,8.1,-,N/A,,Clear,290,2012-10-10 08:51:00
4:51 AM,44.1,39.9,85,30.13,10.0,WNW,6.9,-,N/A,,Clear,290,2012-10-10 09:51:00
5:51 AM,42.1,37.9,85,30.17,10.0,WNW,4.6,-,N/A,,Clear,300,2012-10-10 10:51:00
6:51 AM,41.0,36.0,82,30.19,10.0,WNW,4.6,-,N/A,,Partly Cloudy,290,2012-10-10 11:51:00
7:51 AM,42.1,37.0,82,30.22,10.0,WNW,6.9,-,N/A,,Partly Cloudy,290,2012-10-10 12:51:00
8:51 AM,46.4,35.6,66,30.25,10.0,NW,8.1,-,N/A,,Partly Cloudy,320,2012-10-10 13:51:00
9:51 AM,48.9,30.9,50,30.27,10.0,NNW,9.2,-,N/A,,Clear,330,2012-10-10 14:51:00
10:51 AM,51.1,28.9,43,30.30,10.0,NNW,12.7,-,N/A,,Clear,330,2012-10-10 15:51:00
11:51 AM,53.1,28.0,38,30.30,10.0,NNW,10.4,16.1,N/A,,Partly Cloudy,340,2012-10-10 16:51:00
12:51 PM,55.9,28.0,34,30.28,10.0,NNW,9.2,-,N/A,,Scattered Clouds,330,2012-10-10 17:51:00
1:51 PM,57.0,28.9,34,30.25,10.0,West,9.2,-,N/A,,Partly Cloudy,270,2012-10-10 18:51:00
2:51 PM,59.0,28.9,32,30.24,10.0,West,10.4,16.1,N/A,,Partly Cloudy,280,2012-10-10 19:51:00
3:51 PM,59.0,28.0,31,30.23,10.0,WNW,9.2,-,N/A,,Partly Cloudy,300,2012-10-10 20:51:00
4:51 PM,59.0,28.0,31,30.22,10.0,Variable,6.9,-,N/A,,Partly Cloudy,0,2012-10-10 21:51:00
5:51 PM,57.0,28.0,33,30.22,10.0,West,5.8,-,N/A,,Partly Cloudy,270,2012-10-10 22:51:00
6:51 PM,54.0,30.0,40,30.23,10.0,Calm,Calm,-,N/A,,Partly Cloudy,0,2012-10-10 23:51:00
7:51 PM,50.0,34.0,54,30.24,10.0,SSW,3.5,-,N/A,,Partly Cloudy,210,2012-10-11 00:51:00
8:51 PM,48.9,34.0,56,30.24,10.0,Calm,Calm,-,N/A,,Clear,0,2012-10-11 01:51:00
9:51 PM,46.9,34.0,61,30.24,10.0,Calm,Calm,-,N/A,,Clear,0,2012-10-11 02:51:00
10:51 PM,46.9,34.0,61,30.24,10.0,Calm,Calm,-,N/A,,Clear,0,2012-10-11 03:51:00
11:51 PM,45.0,34.0,65,30.24,10.0,Calm,Calm,-,N/A,,Partly Cloudy,0,2012-10-11 04:51:00